Time,TemperatureF,DewpointF,PressureIn,WindDirection,WindDirectionDegrees,WindSpeedMPH,WindSpeedGustMPH,Humidity,HourlyPrecipIn,Conditions,Clouds,dailyrainin,SolarRadiationWatts/m^2,SoftwareType,DateUTC
2013-05-04 00:01:00,72.0,31.0,-100.00,West,278,13.0,19.0,22,0.00,,,-99.99,0.000000,,2013-05-04 07:01:00,
2013-05-04 00:32:00,72.0,25.0,-100.00,West,277,14.0,21.0,17,0.00,,,0.00,0.000000,,2013-05-04 07:32:00,
2013-05-04 00:42:00,72.0,25.0,-100.00,West,277,14.0,21.0,17,0.00,,,0.00,0.000000,,2013-05-04 07:42:00,
2013-05-04 00:52:00,72.0,25.0,-100.00,West,277,14.0,21.0,17,0.00,,,0.00,0.000000,,2013-05-04 07:52:00,
2013-05-04 01:01:00,72.0,25.0,-100.00,West,277,14.0,21.0,17,0.00,,,0.00,0.000000,,2013-05-04 08:01:00,
2013-05-04 01:02:00,72.0,23.0,-100.00,West,280,11.0,21.0,16,0.00,,,0.00,0.000000,,2013-05-04 08:02:00,
2013-05-04 01:32:00,72.0,23.0,-100.00,West,280,11.0,21.0,16,0.00,,,0.00,0.000000,,2013-05-04 08:32:00,
2013-05-04 01:42:00,72.0,23.0,-100.00,West,280,11.0,21.0,16,0.00,,,0.00,0.000000,,2013-05-04 08:42:00,
2013-05-04 01:52:00,72.0,23.0,-100.00,West,280,11.0,21.0,16,0.00,,,0.00,0.000000,,2013-05-04 08:52:00,
2013-05-04 02:02:00,72.0,27.0,-100.00,WNW,282,9.0,16.0,19,0.00,,,-99.99,0.000000,,2013-05-04 09:02:00,
2013-05-04 02:32:00,72.0,27.0,-100.00,WNW,282,9.0,16.0,19,0.00,,,-99.99,0.000000,,2013-05-04 09:32:00,
2013-05-04 02:42:00,72.0,27.0,-100.00,WNW,282,9.0,16.0,19,0.00,,,-99.99,0.000000,,2013-05-04 09:42:00,
2013-05-04 02:53:00,72.0,27.0,-100.00,WNW,282,9.0,16.0,19,0.00,,,-99.99,0.000000,,2013-05-04 09:53:00,
2013-05-04 03:02:00,72.0,30.0,-100.00,NW,315,9.0,13.0,21,0.00,,,0.00,0.000000,,2013-05-04 10:02:00,
2013-05-04 03:23:00,72.0,30.0,-100.00,NW,315,9.0,13.0,21,0.00,,,0.00,0.000000,,2013-05-04 10:23:00,
2013-05-04 03:33:00,72.0,30.0,-100.00,NW,315,9.0,13.0,21,0.00,,,0.00,0.000000,,2013-05-04 10:33:00,
2013-05-04 03:42:00,72.0,30.0,-100.00,NW,315,9.0,13.0,21,0.00,,,0.00,0.000000,,2013-05-04 10:42:00,
2013-05-04 03:53:00,72.0,30.0,-100.00,NW,315,9.0,13.0,21,0.00,,,0.00,0.000000,,2013-05-04 10:53:00,
2013-05-04 04:02:00,69.0,31.0,-100.00,NW,316,12.0,19.0,24,0.00,,,0.00,0.000000,,2013-05-04 11:02:00,
2013-05-04 04:22:00,69.0,31.0,-100.00,NW,316,12.0,19.0,24,0.00,,,0.00,0.000000,,2013-05-04 11:22:00,
2013-05-04 04:32:00,69.0,31.0,-100.00,NW,316,12.0,19.0,24,0.00,,,0.00,0.000000,,2013-05-04 11:32:00,
2013-05-04 04:46:00,69.0,31.0,-100.00,NW,316,12.0,19.0,24,0.00,,,0.00,0.000000,,2013-05-04 11:46:00,
2013-05-04 04:59:00,69.0,31.0,-100.00,NW,316,12.0,19.0,24,0.00,,,0.00,0.000000,,2013-05-04 11:59:00,
2013-05-04 05:37:00,68.0,35.0,-100.00,WNW,297,15.0,27.0,29,0.00,,,0.00,0.000000,,2013-05-04 12:37:00,
2013-05-04 05:52:00,68.0,35.0,-100.00,WNW,297,15.0,27.0,29,0.00,,,0.00,0.000000,,2013-05-04 12:52:00,
2013-05-04 06:01:00,68.0,35.0,-100.00,WNW,297,15.0,27.0,29,0.00,,,0.00,0.000000,,2013-05-04 13:01:00,
2013-05-04 06:32:00,68.0,28.0,-100.00,WNW,293,14.0,25.0,22,0.00,,,0.00,0.000000,,2013-05-04 13:32:00,
2013-05-04 06:42:00,68.0,28.0,-100.00,WNW,293,14.0,25.0,22,0.00,,,0.00,0.000000,,2013-05-04 13:42:00,
2013-05-04 06:52:00,68.0,28.0,-100.00,WNW,293,14.0,25.0,22,0.00,,,0.00,0.000000,,2013-05-04 13:52:00,
2013-05-04 07:01:00,68.0,28.0,-100.00,WNW,293,14.0,25.0,22,0.00,,,0.00,0.000000,,2013-05-04 14:01:00,
2013-05-04 07:21:00,69.0,26.0,-100.00,WNW,298,16.0,30.0,20,0.00,,,0.00,42.000000,,2013-05-04 14:21:00,
2013-05-04 07:32:00,69.0,26.0,-100.00,WNW,298,16.0,30.0,20,0.00,,,0.00,42.000000,,2013-05-04 14:32:00,
2013-05-04 07:42:00,69.0,26.0,-100.00,WNW,298,16.0,30.0,20,0.00,,,0.00,42.000000,,2013-05-04 14:42:00,
2013-05-04 07:52:00,69.0,26.0,-100.00,WNW,298,16.0,30.0,20,0.00,,,0.00,42.000000,,2013-05-04 14:52:00,
2013-05-04 08:01:00,69.0,26.0,-100.00,WNW,298,16.0,30.0,20,0.00,,,0.00,42.000000,,2013-05-04 15:01:00,
2013-05-04 08:02:00,70.0,26.0,-100.00,WNW,300,14.0,29.0,19,0.00,,,0.00,220.000000,,2013-05-04 15:02:00,
2013-05-04 08:22:00,70.0,26.0,-100.00,WNW,300,14.0,29.0,19,0.00,,,0.00,220.000000,,2013-05-04 15:22:00,
2013-05-04 08:33:00,70.0,26.0,-100.00,WNW,300,14.0,29.0,19,0.00,,,0.00,220.000000,,2013-05-04 15:33:00,
2013-05-04 08:43:00,70.0,26.0,-100.00,WNW,300,14.0,29.0,19,0.00,,,0.00,220.000000,,2013-05-04 15:43:00,
2013-05-04 08:53:00,70.0,26.0,-100.00,WNW,300,14.0,29.0,19,0.00,,,0.00,220.000000,,2013-05-04 15:53:00,
2013-05-04 09:02:00,73.0,27.0,-100.00,NW,311,11.0,26.0,18,0.00,,,0.00,428.000000,,2013-05-04 16:02:00,
2013-05-04 09:33:00,73.0,27.0,-100.00,NW,311,11.0,26.0,18,0.00,,,0.00,428.000000,,2013-05-04 16:33:00,
2013-05-04 09:42:00,73.0,27.0,-100.00,NW,311,11.0,26.0,18,0.00,,,0.00,428.000000,,2013-05-04 16:42:00,
2013-05-04 09:52:00,73.0,27.0,-100.00,NW,311,11.0,26.0,18,0.00,,,0.00,428.000000,,2013-05-04 16:52:00,
2013-05-04 10:32:00,75.0,29.0,-100.00,NW,319,10.0,21.0,18,0.00,,,0.00,628.000000,,2013-05-04 17:32:00,
2013-05-04 10:42:00,75.0,29.0,-100.00,NW,319,10.0,21.0,18,0.00,,,0.00,628.000000,,2013-05-04 17:42:00,
2013-05-04 10:52:00,75.0,29.0,-100.00,NW,319,10.0,21.0,18,0.00,,,0.00,628.000000,,2013-05-04 17:52:00,
2013-05-04 11:01:00,75.0,29.0,-100.00,NW,319,10.0,21.0,18,0.00,,,0.00,628.000000,,2013-05-04 18:01:00,
2013-05-04 11:32:00,77.0,29.0,-100.00,ENE,58,13.0,29.0,17,0.00,,,0.00,796.000000,,2013-05-04 18:32:00,
2013-05-04 11:42:00,77.0,29.0,-100.00,ENE,58,13.0,29.0,17,0.00,,,0.00,796.000000,,2013-05-04 18:42:00,
2013-05-04 11:52:00,77.0,29.0,-100.00,ENE,58,13.0,29.0,17,0.00,,,0.00,796.000000,,2013-05-04 18:52:00,
2013-05-04 12:01:00,77.0,29.0,-100.00,ENE,58,13.0,29.0,17,0.00,,,0.00,796.000000,,2013-05-04 19:01:00,
2013-05-04 12:32:00,78.0,28.0,-100.00,NE,52,12.0,27.0,16,0.00,,,0.00,921.000000,,2013-05-04 19:32:00,
2013-05-04 12:42:00,78.0,28.0,-100.00,NE,52,12.0,27.0,16,0.00,,,0.00,921.000000,,2013-05-04 19:42:00,
2013-05-04 12:52:00,78.0,28.0,-100.00,NE,52,12.0,27.0,16,0.00,,,0.00,921.000000,,2013-05-04 19:52:00,
2013-05-04 13:01:00,78.0,28.0,-100.00,NE,52,12.0,27.0,16,0.00,,,0.00,921.000000,,2013-05-04 20:01:00,
2013-05-04 13:32:00,80.0,28.0,-100.00,NE,41,8.0,24.0,15,0.00,,,0.00,988.000000,,2013-05-04 20:32:00,
2013-05-04 13:42:00,80.0,28.0,-100.00,NE,41,8.0,24.0,15,0.00,,,0.00,988.000000,,2013-05-04 20:42:00,
2013-05-04 13:52:00,80.0,28.0,-100.00,NE,41,8.0,24.0,15,0.00,,,0.00,988.000000,,2013-05-04 20:52:00,
2013-05-04 14:01:00,80.0,28.0,-100.00,NE,41,8.0,24.0,15,0.00,,,0.00,988.000000,,2013-05-04 21:01:00,
2013-05-04 14:02:00,81.0,27.0,-100.00,ENE,66,7.0,17.0,14,0.00,,,0.00,995.000000,,2013-05-04 21:02:00,
2013-05-04 14:33:00,81.0,27.0,-100.00,ENE,66,7.0,17.0,14,0.00,,,0.00,995.000000,,2013-05-04 21:33:00,
2013-05-04 14:43:00,81.0,27.0,-100.00,ENE,66,7.0,17.0,14,0.00,,,0.00,995.000000,,2013-05-04 21:43:00,
2013-05-04 14:53:00,81.0,27.0,-100.00,ENE,66,7.0,17.0,14,0.00,,,0.00,995.000000,,2013-05-04 21:53:00,
2013-05-04 15:02:00,81.0,31.0,-100.00,East,89,8.0,16.0,16,0.00,,,-99.99,925.000000,,2013-05-04 22:02:00,
2013-05-04 15:22:00,81.0,31.0,-100.00,East,89,8.0,16.0,16,0.00,,,-99.99,925.000000,,2013-05-04 22:22:00,
2013-05-04 15:33:00,81.0,31.0,-100.00,East,89,8.0,16.0,16,0.00,,,-99.99,925.000000,,2013-05-04 22:33:00,
2013-05-04 15:42:00,81.0,31.0,-100.00,East,89,8.0,16.0,16,0.00,,,-99.99,925.000000,,2013-05-04 22:42:00,
2013-05-04 15:52:00,81.0,31.0,-100.00,East,89,8.0,16.0,16,0.00,,,-99.99,925.000000,,2013-05-04 22:52:00,
2013-05-04 16:22:00,81.0,31.0,-100.00,ENE,69,6.0,13.0,16,0.00,,,-99.99,809.000000,,2013-05-04 23:22:00,
2013-05-04 16:32:00,81.0,31.0,-100.00,ENE,69,6.0,13.0,16,0.00,,,-99.99,809.000000,,2013-05-04 23:32:00,
2013-05-04 16:42:00,81.0,31.0,-100.00,ENE,69,6.0,13.0,16,0.00,,,-99.99,809.000000,,2013-05-04 23:42:00,
2013-05-04 16:52:00,81.0,31.0,-100.00,ENE,69,6.0,13.0,16,0.00,,,-99.99,809.000000,,2013-05-04 23:52:00,
2013-05-04 17:01:00,81.0,31.0,-100.00,ENE,69,6.0,13.0,16,0.00,,,-99.99,809.000000,,2013-05-05 00:01:00,
2013-05-04 17:32:00,83.0,29.0,-100.00,West,270,6.0,13.0,14,0.00,,,0.00,656.000000,,2013-05-05 00:32:00,
2013-05-04 17:42:00,83.0,29.0,-100.00,West,270,6.0,13.0,14,0.00,,,0.00,656.000000,,2013-05-05 00:42:00,
2013-05-04 17:52:00,83.0,29.0,-100.00,West,270,6.0,13.0,14,0.00,,,0.00,656.000000,,2013-05-05 00:52:00,
2013-05-04 18:01:00,83.0,29.0,-100.00,West,270,6.0,13.0,14,0.00,,,0.00,656.000000,,2013-05-05 01:01:00,
2013-05-04 18:02:00,79.0,33.0,-100.00,WSW,257,8.0,15.0,19,0.00,,,0.00,464.000000,,2013-05-05 01:02:00,
2013-05-04 18:22:00,79.0,33.0,-100.00,WSW,257,8.0,15.0,19,0.00,,,0.00,464.000000,,2013-05-05 01:22:00,
2013-05-04 18:32:00,79.0,33.0,-100.00,WSW,257,8.0,15.0,19,0.00,,,0.00,464.000000,,2013-05-05 01:32:00,
2013-05-04 18:42:00,79.0,33.0,-100.00,WSW,257,8.0,15.0,19,0.00,,,0.00,464.000000,,2013-05-05 01:42:00,
2013-05-04 18:52:00,79.0,33.0,-100.00,WSW,257,8.0,15.0,19,0.00,,,0.00,464.000000,,2013-05-05 01:52:00,
2013-05-04 19:32:00,73.0,36.0,-100.00,WSW,257,8.0,16.0,26,0.00,,,0.00,259.000000,,2013-05-05 02:32:00,
2013-05-04 19:42:00,73.0,36.0,-100.00,WSW,257,8.0,16.0,26,0.00,,,0.00,259.000000,,2013-05-05 02:42:00,
2013-05-04 19:52:00,73.0,36.0,-100.00,WSW,257,8.0,16.0,26,0.00,,,0.00,259.000000,,2013-05-05 02:52:00,
2013-05-04 20:01:00,73.0,36.0,-100.00,WSW,257,8.0,16.0,26,0.00,,,0.00,259.000000,,2013-05-05 03:01:00,
2013-05-04 20:02:00,65.0,34.0,-100.00,West,266,9.0,16.0,31,0.00,,,0.00,67.000000,,2013-05-05 03:02:00,
2013-05-04 20:22:00,65.0,34.0,-100.00,West,266,9.0,16.0,31,0.00,,,0.00,67.000000,,2013-05-05 03:22:00,
2013-05-04 20:33:00,65.0,34.0,-100.00,West,266,9.0,16.0,31,0.00,,,0.00,67.000000,,2013-05-05 03:33:00,
2013-05-04 20:42:00,65.0,34.0,-100.00,West,266,9.0,16.0,31,0.00,,,0.00,67.000000,,2013-05-05 03:42:00,
2013-05-04 20:53:00,65.0,34.0,-100.00,West,266,9.0,16.0,31,0.00,,,0.00,67.000000,,2013-05-05 03:53:00,
2013-05-04 21:02:00,63.0,39.0,-100.00,West,265,10.0,21.0,41,0.00,,,0.00,1.000000,,2013-05-05 04:02:00,
2013-05-04 21:33:00,63.0,39.0,-100.00,West,265,10.0,21.0,41,0.00,,,0.00,1.000000,,2013-05-05 04:33:00,
2013-05-04 21:43:00,63.0,39.0,-100.00,West,265,10.0,21.0,41,0.00,,,0.00,1.000000,,2013-05-05 04:43:00,
2013-05-04 21:52:00,63.0,39.0,-100.00,West,265,10.0,21.0,41,0.00,,,0.00,1.000000,,2013-05-05 04:52:00,
2013-05-04 22:22:00,61.0,42.0,-100.00,West,270,11.0,19.0,50,0.00,,,0.00,0.000000,,2013-05-05 05:22:00,
2013-05-04 22:32:00,61.0,42.0,-100.00,West,270,11.0,19.0,50,0.00,,,0.00,0.000000,,2013-05-05 05:32:00,
2013-05-04 22:42:00,61.0,42.0,-100.00,West,270,11.0,19.0,50,0.00,,,0.00,0.000000,,2013-05-05 05:42:00,
2013-05-04 22:52:00,61.0,42.0,-100.00,West,270,11.0,19.0,50,0.00,,,0.00,0.000000,,2013-05-05 05:52:00,
2013-05-04 23:01:00,61.0,42.0,-100.00,West,270,11.0,19.0,50,0.00,,,0.00,0.000000,,2013-05-05 06:01:00,
2013-05-04 23:32:00,57.0,41.0,-100.00,West,277,16.0,25.0,56,0.00,,,0.00,0.000000,,2013-05-05 06:32:00,
2013-05-04 23:42:00,57.0,41.0,-100.00,West,277,16.0,25.0,56,0.00,,,0.00,0.000000,,2013-05-05 06:42:00,
2013-05-04 23:52:00,57.0,41.0,-100.00,West,277,16.0,25.0,56,0.00,,,0.00,0.000000,,2013-05-05 06:52:00,